sensor_id;sensor_type;location;lat;lon;timestamp;P1;durP1;ratioP1;P2;durP2;ratioP2
15936;SDS011;9163;48.818;8.976;2023-02-01T00:01:25;6.70;;;4.60;;
15936;SDS011;9163;48.818;8.976;2023-02-01T00:03:52;6.70;;;4.30;;
15936;SDS011;9163;48.818;8.976;2023-02-01T00:06:19;8.53;;;4.30;;
15936;SDS011;9163;48.818;8.976;2023-02-01T00:08:47;6.70;;;4.43;;
15936;SDS011;9163;48.818;8.976;2023-02-01T00:11:14;6.23;;;4.17;;
15936;SDS011;9163;48.818;8.976;2023-02-01T00:13:43;5.83;;;4.27;;
15936;SDS011;9163;48.818;8.976;2023-02-01T00:16:10;6.40;;;3.90;;
15936;SDS011;9163;48.818;8.976;2023-02-01T00:18:41;4.93;;;3.43;;
15936;SDS011;9163;48.818;8.976;2023-02-01T00:21:09;4.87;;;4.07;;
15936;SDS011;9163;48.818;8.976;2023-02-01T00:23:37;4.67;;;3.60;;
15936;SDS011;9163;48.818;8.976;2023-02-01T00:26:06;3.97;;;3.00;;
15936;SDS011;9163;48.818;8.976;2023-02-01T00:28:40;5.10;;;3.33;;
15936;SDS011;9163;48.818;8.976;2023-02-01T00:31:09;3.90;;;2.80;;
15936;SDS011;9163;48.818;8.976;2023-02-01T00:33:36;3.27;;;2.80;;
15936;SDS011;9163;48.818;8.976;2023-02-01T00:36:04;4.47;;;3.20;;
15936;SDS011;9163;48.818;8.976;2023-02-01T00:38:33;4.87;;;2.67;;
15936;SDS011;9163;48.818;8.976;2023-02-01T00:41:03;5.23;;;3.17;;
15936;SDS011;9163;48.818;8.976;2023-02-01T00:43:31;4.10;;;3.20;;
15936;SDS011;9163;48.818;8.976;2023-02-01T00:46:00;4.57;;;3.27;;
15936;SDS011;9163;48.818;8.976;2023-02-01T00:48:29;5.40;;;3.83;;
15936;SDS011;9163;48.818;8.976;2023-02-01T00:50:58;7.70;;;3.90;;
15936;SDS011;9163;48.818;8.976;2023-02-01T00:53:25;4.60;;;3.73;;
15936;SDS011;9163;48.818;8.976;2023-02-01T00:55:53;4.67;;;3.73;;
15936;SDS011;9163;48.818;8.976;2023-02-01T00:58:20;4.90;;;3.60;;
15936;SDS011;9163;48.818;8.976;2023-02-01T01:00:49;5.83;;;3.67;;
15936;SDS011;9163;48.818;8.976;2023-02-01T01:03:16;4.43;;;3.27;;
15936;SDS011;9163;48.818;8.976;2023-02-01T01:05:48;5.23;;;3.90;;
15936;SDS011;9163;48.818;8.976;2023-02-01T01:08:15;4.47;;;3.50;;
15936;SDS011;9163;48.818;8.976;2023-02-01T01:10:43;4.80;;;3.50;;
15936;SDS011;9163;48.818;8.976;2023-02-01T01:13:10;5.90;;;4.20;;
15936;SDS011;9163;48.818;8.976;2023-02-01T01:15:38;5.73;;;3.83;;
15936;SDS011;9163;48.818;8.976;2023-02-01T01:18:06;5.57;;;3.70;;
15936;SDS011;9163;48.818;8.976;2023-02-01T01:20:34;5.73;;;4.07;;
15936;SDS011;9163;48.818;8.976;2023-02-01T01:23:04;4.97;;;3.37;;
15936;SDS011;9163;48.818;8.976;2023-02-01T01:25:32;4.87;;;3.40;;
15936;SDS011;9163;48.818;8.976;2023-02-01T01:28:03;5.50;;;3.20;;
15936;SDS011;9163;48.818;8.976;2023-02-01T01:30:30;5.27;;;3.20;;
15936;SDS011;9163;48.818;8.976;2023-02-01T01:32:58;4.80;;;3.47;;
15936;SDS011;9163;48.818;8.976;2023-02-01T01:35:25;4.60;;;3.67;;
15936;SDS011;9163;48.818;8.976;2023-02-01T01:37:52;4.23;;;3.13;;
15936;SDS011;9163;48.818;8.976;2023-02-01T01:40:21;4.40;;;3.10;;
15936;SDS011;9163;48.818;8.976;2023-02-01T01:42:48;4.77;;;3.37;;
15936;SDS011;9163;48.818;8.976;2023-02-01T01:45:20;4.17;;;3.20;;
15936;SDS011;9163;48.818;8.976;2023-02-01T01:47:51;4.87;;;3.30;;
15936;SDS011;9163;48.818;8.976;2023-02-01T01:50:22;4.43;;;3.37;;
15936;SDS011;9163;48.818;8.976;2023-02-01T01:52:51;3.77;;;2.87;;
15936;SDS011;9163;48.818;8.976;2023-02-01T01:55:23;3.87;;;3.20;;
15936;SDS011;9163;48.818;8.976;2023-02-01T01:57:54;3.33;;;2.73;;
15936;SDS011;9163;48.818;8.976;2023-02-01T02:00:24;2.80;;;2.50;;
15936;SDS011;9163;48.818;8.976;2023-02-01T02:02:53;4.30;;;2.67;;
15936;SDS011;9163;48.818;8.976;2023-02-01T02:05:25;3.30;;;2.40;;
15936;SDS011;9163;48.818;8.976;2023-02-01T02:07:53;2.90;;;2.27;;
15936;SDS011;9163;48.818;8.976;2023-02-01T02:10:27;2.70;;;2.30;;
15936;SDS011;9163;48.818;8.976;2023-02-01T02:13:09;3.53;;;2.30;;
15936;SDS011;9163;48.818;8.976;2023-02-01T02:15:37;3.00;;;2.20;;
15936;SDS011;9163;48.818;8.976;2023-02-01T02:18:13;2.53;;;2.07;;
15936;SDS011;9163;48.818;8.976;2023-02-01T02:20:51;2.83;;;2.20;;
15936;SDS011;9163;48.818;8.976;2023-02-01T02:24:04;2.90;;;2.17;;
15936;SDS011;9163;48.818;8.976;2023-02-01T02:26:56;3.73;;;2.37;;
15936;SDS011;9163;48.818;8.976;2023-02-01T02:29:35;2.80;;;2.30;;
15936;SDS011;9163;48.818;8.976;2023-02-01T02:32:28;2.87;;;2.10;;
15936;SDS011;9163;48.818;8.976;2023-02-01T02:35:28;2.30;;;2.00;;
15936;SDS011;9163;48.818;8.976;2023-02-01T02:38:02;3.30;;;2.10;;
15936;SDS011;9163;48.818;8.976;2023-02-01T02:40:41;3.03;;;2.30;;
15936;SDS011;9163;48.818;8.976;2023-02-01T02:43:13;2.77;;;2.37;;
15936;SDS011;9163;48.818;8.976;2023-02-01T02:46:05;3.43;;;2.57;;
15936;SDS011;9163;48.818;8.976;2023-02-01T02:48:59;3.20;;;2.50;;
15936;SDS011;9163;48.818;8.976;2023-02-01T02:51:34;4.23;;;2.80;;
15936;SDS011;9163;48.818;8.976;2023-02-01T02:54:25;3.13;;;2.60;;
15936;SDS011;9163;48.818;8.976;2023-02-01T02:57:19;2.83;;;2.53;;
15936;SDS011;9163;48.818;8.976;2023-02-01T03:00:08;3.83;;;2.73;;
15936;SDS011;9163;48.818;8.976;2023-02-01T03:02:55;4.07;;;2.77;;
15936;SDS011;9163;48.818;8.976;2023-02-01T03:05:41;3.10;;;2.60;;
15936;SDS011;9163;48.818;8.976;2023-02-01T03:08:12;3.90;;;2.97;;
15936;SDS011;9163;48.818;8.976;2023-02-01T03:10:51;3.73;;;2.90;;
15936;SDS011;9163;48.818;8.976;2023-02-01T03:13:27;3.43;;;3.00;;
15936;SDS011;9163;48.818;8.976;2023-02-01T03:16:00;3.43;;;3.03;;
15936;SDS011;9163;48.818;8.976;2023-02-01T03:18:33;4.03;;;3.10;;
15936;SDS011;9163;48.818;8.976;2023-02-01T03:21:06;4.93;;;3.17;;
15936;SDS011;9163;48.818;8.976;2023-02-01T03:23:38;7.20;;;3.43;;
15936;SDS011;9163;48.818;8.976;2023-02-01T03:26:07;4.70;;;3.47;;
15936;SDS011;9163;48.818;8.976;2023-02-01T03:28:37;4.07;;;3.10;;
15936;SDS011;9163;48.818;8.976;2023-02-01T03:31:08;4.17;;;3.47;;
15936;SDS011;9163;48.818;8.976;2023-02-01T03:33:36;5.10;;;3.20;;
15936;SDS011;9163;48.818;8.976;2023-02-01T03:36:09;4.20;;;3.27;;
15936;SDS011;9163;48.818;8.976;2023-02-01T03:38:47;4.97;;;3.37;;
15936;SDS011;9163;48.818;8.976;2023-02-01T03:41:19;5.23;;;3.73;;
15936;SDS011;9163;48.818;8.976;2023-02-01T03:43:54;4.77;;;3.97;;
15936;SDS011;9163;48.818;8.976;2023-02-01T03:46:26;5.33;;;3.90;;
15936;SDS011;9163;48.818;8.976;2023-02-01T03:48:59;5.40;;;3.70;;
15936;SDS011;9163;48.818;8.976;2023-02-01T03:51:29;5.47;;;3.90;;
15936;SDS011;9163;48.818;8.976;2023-02-01T03:53:59;5.20;;;3.70;;
15936;SDS011;9163;48.818;8.976;2023-02-01T03:56:30;5.13;;;3.40;;
15936;SDS011;9163;48.818;8.976;2023-02-01T03:58:58;5.40;;;3.20;;
15936;SDS011;9163;48.818;8.976;2023-02-01T04:01:26;4.33;;;3.33;;
15936;SDS011;9163;48.818;8.976;2023-02-01T04:03:54;4.30;;;3.30;;
15936;SDS011;9163;48.818;8.976;2023-02-01T04:06:22;4.03;;;3.13;;
15936;SDS011;9163;48.818;8.976;2023-02-01T04:08:49;3.77;;;2.73;;
15936;SDS011;9163;48.818;8.976;2023-02-01T04:11:18;4.17;;;2.80;;
15936;SDS011;9163;48.818;8.976;2023-02-01T04:13:45;3.23;;;2.20;;
15936;SDS011;9163;48.818;8.976;2023-02-01T04:16:12;3.30;;;2.70;;
15936;SDS011;9163;48.818;8.976;2023-02-01T04:18:40;3.27;;;1.80;;
15936;SDS011;9163;48.818;8.976;2023-02-01T04:21:07;2.00;;;1.70;;
15936;SDS011;9163;48.818;8.976;2023-02-01T04:23:34;2.63;;;1.60;;
15936;SDS011;9163;48.818;8.976;2023-02-01T04:26:02;3.70;;;1.73;;
15936;SDS011;9163;48.818;8.976;2023-02-01T04:28:31;2.10;;;1.30;;
15936;SDS011;9163;48.818;8.976;2023-02-01T04:30:58;1.93;;;1.40;;
15936;SDS011;9163;48.818;8.976;2023-02-01T04:33:26;2.20;;;1.50;;
15936;SDS011;9163;48.818;8.976;2023-02-01T04:35:53;2.30;;;1.37;;
15936;SDS011;9163;48.818;8.976;2023-02-01T04:38:20;4.30;;;1.73;;
15936;SDS011;9163;48.818;8.976;2023-02-01T04:40:48;2.20;;;1.20;;
15936;SDS011;9163;48.818;8.976;2023-02-01T04:43:15;3.27;;;1.63;;
15936;SDS011;9163;48.818;8.976;2023-02-01T04:45:47;2.20;;;1.40;;
15936;SDS011;9163;48.818;8.976;2023-02-01T04:48:15;2.20;;;1.30;;
15936;SDS011;9163;48.818;8.976;2023-02-01T04:50:43;1.33;;;1.23;;
15936;SDS011;9163;48.818;8.976;2023-02-01T04:53:12;2.33;;;1.50;;
15936;SDS011;9163;48.818;8.976;2023-02-01T04:55:40;2.53;;;1.43;;
15936;SDS011;9163;48.818;8.976;2023-02-01T04:58:08;1.47;;;1.30;;
15936;SDS011;9163;48.818;8.976;2023-02-01T05:00:35;1.93;;;1.30;;
15936;SDS011;9163;48.818;8.976;2023-02-01T05:03:05;2.13;;;1.60;;
15936;SDS011;9163;48.818;8.976;2023-02-01T05:05:32;1.63;;;1.23;;
15936;SDS011;9163;48.818;8.976;2023-02-01T05:07:59;2.03;;;1.50;;
15936;SDS011;9163;48.818;8.976;2023-02-01T05:10:26;3.63;;;1.60;;
15936;SDS011;9163;48.818;8.976;2023-02-01T05:12:53;2.77;;;1.40;;
15936;SDS011;9163;48.818;8.976;2023-02-01T05:15:38;1.77;;;1.20;;
15936;SDS011;9163;48.818;8.976;2023-02-01T05:18:07;3.17;;;1.80;;
15936;SDS011;9163;48.818;8.976;2023-02-01T05:20:34;2.73;;;1.53;;
15936;SDS011;9163;48.818;8.976;2023-02-01T05:23:01;2.00;;;1.40;;
15936;SDS011;9163;48.818;8.976;2023-02-01T05:25:28;3.07;;;1.40;;
15936;SDS011;9163;48.818;8.976;2023-02-01T05:27:56;2.83;;;1.50;;
15936;SDS011;9163;48.818;8.976;2023-02-01T05:30:23;3.63;;;1.50;;
15936;SDS011;9163;48.818;8.976;2023-02-01T05:32:50;3.67;;;1.60;;
15936;SDS011;9163;48.818;8.976;2023-02-01T05:35:19;2.57;;;1.67;;
15936;SDS011;9163;48.818;8.976;2023-02-01T05:37:46;3.20;;;1.67;;
15936;SDS011;9163;48.818;8.976;2023-02-01T05:40:14;2.17;;;1.60;;
15936;SDS011;9163;48.818;8.976;2023-02-01T05:42:41;2.13;;;1.60;;
15936;SDS011;9163;48.818;8.976;2023-02-01T05:45:08;3.30;;;1.63;;
15936;SDS011;9163;48.818;8.976;2023-02-01T05:47:36;1.93;;;1.40;;
15936;SDS011;9163;48.818;8.976;2023-02-01T05:50:04;4.10;;;1.77;;
15936;SDS011;9163;48.818;8.976;2023-02-01T05:52:34;3.33;;;2.00;;
15936;SDS011;9163;48.818;8.976;2023-02-01T05:55:01;1.80;;;1.70;;
15936;SDS011;9163;48.818;8.976;2023-02-01T05:57:29;3.47;;;1.87;;
15936;SDS011;9163;48.818;8.976;2023-02-01T05:59:56;3.97;;;2.00;;
15936;SDS011;9163;48.818;8.976;2023-02-01T06:02:23;2.77;;;1.70;;
15936;SDS011;9163;48.818;8.976;2023-02-01T06:04:50;3.40;;;1.90;;
15936;SDS011;9163;48.818;8.976;2023-02-01T06:07:18;3.57;;;2.00;;
15936;SDS011;9163;48.818;8.976;2023-02-01T06:09:46;2.53;;;1.93;;
15936;SDS011;9163;48.818;8.976;2023-02-01T06:12:14;3.73;;;1.93;;
15936;SDS011;9163;48.818;8.976;2023-02-01T06:14:41;3.23;;;2.87;;
15936;SDS011;9163;48.818;8.976;2023-02-01T06:17:09;2.57;;;2.10;;
15936;SDS011;9163;48.818;8.976;2023-02-01T06:19:36;3.30;;;2.40;;
15936;SDS011;9163;48.818;8.976;2023-02-01T06:22:03;4.83;;;2.80;;
15936;SDS011;9163;48.818;8.976;2023-02-01T06:24:31;3.47;;;2.37;;
15936;SDS011;9163;48.818;8.976;2023-02-01T06:27:00;4.13;;;2.87;;
15936;SDS011;9163;48.818;8.976;2023-02-01T06:29:27;4.87;;;2.80;;
15936;SDS011;9163;48.818;8.976;2023-02-01T06:31:54;5.33;;;3.03;;
15936;SDS011;9163;48.818;8.976;2023-02-01T06:34:22;8.43;;;3.73;;
15936;SDS011;9163;48.818;8.976;2023-02-01T06:36:49;9.23;;;4.30;;
15936;SDS011;9163;48.818;8.976;2023-02-01T06:39:17;6.03;;;3.20;;
15936;SDS011;9163;48.818;8.976;2023-02-01T06:41:45;7.30;;;3.70;;
15936;SDS011;9163;48.818;8.976;2023-02-01T06:44:14;5.93;;;3.43;;
15936;SDS011;9163;48.818;8.976;2023-02-01T06:46:41;6.33;;;3.40;;
15936;SDS011;9163;48.818;8.976;2023-02-01T06:49:08;4.87;;;3.20;;
15936;SDS011;9163;48.818;8.976;2023-02-01T06:51:36;5.90;;;3.50;;
15936;SDS011;9163;48.818;8.976;2023-02-01T06:54:03;8.43;;;3.20;;
15936;SDS011;9163;48.818;8.976;2023-02-01T06:56:30;6.63;;;3.60;;
15936;SDS011;9163;48.818;8.976;2023-02-01T06:58:58;7.70;;;3.70;;
15936;SDS011;9163;48.818;8.976;2023-02-01T07:01:27;9.90;;;3.53;;
15936;SDS011;9163;48.818;8.976;2023-02-01T07:03:54;7.37;;;4.00;;
15936;SDS011;9163;48.818;8.976;2023-02-01T07:06:21;6.23;;;3.60;;
15936;SDS011;9163;48.818;8.976;2023-02-01T07:08:49;10.13;;;4.77;;
15936;SDS011;9163;48.818;8.976;2023-02-01T07:11:17;6.00;;;3.93;;
15936;SDS011;9163;48.818;8.976;2023-02-01T07:13:45;6.33;;;3.80;;
15936;SDS011;9163;48.818;8.976;2023-02-01T07:16:12;9.63;;;5.20;;
15936;SDS011;9163;48.818;8.976;2023-02-01T07:18:43;12.00;;;5.40;;
15936;SDS011;9163;48.818;8.976;2023-02-01T07:21:10;8.57;;;3.30;;
15936;SDS011;9163;48.818;8.976;2023-02-01T07:23:38;8.67;;;5.90;;
15936;SDS011;9163;48.818;8.976;2023-02-01T07:26:07;5.00;;;3.30;;
15936;SDS011;9163;48.818;8.976;2023-02-01T07:28:37;7.60;;;3.67;;
15936;SDS011;9163;48.818;8.976;2023-02-01T07:31:06;9.80;;;3.80;;
15936;SDS011;9163;48.818;8.976;2023-02-01T07:33:34;9.00;;;4.60;;
15936;SDS011;9163;48.818;8.976;2023-02-01T07:36:03;9.73;;;4.93;;
15936;SDS011;9163;48.818;8.976;2023-02-01T07:38:32;9.10;;;4.13;;
15936;SDS011;9163;48.818;8.976;2023-02-01T07:41:00;8.10;;;4.10;;
15936;SDS011;9163;48.818;8.976;2023-02-01T07:43:28;8.53;;;3.57;;
15936;SDS011;9163;48.818;8.976;2023-02-01T07:45:56;10.37;;;3.70;;
15936;SDS011;9163;48.818;8.976;2023-02-01T07:48:23;10.57;;;5.07;;
15936;SDS011;9163;48.818;8.976;2023-02-01T07:50:56;10.87;;;4.53;;
15936;SDS011;9163;48.818;8.976;2023-02-01T07:53:26;8.83;;;4.17;;
15936;SDS011;9163;48.818;8.976;2023-02-01T07:55:54;10.67;;;3.87;;
15936;SDS011;9163;48.818;8.976;2023-02-01T07:58:22;10.07;;;4.10;;
15936;SDS011;9163;48.818;8.976;2023-02-01T08:00:49;14.73;;;3.57;;
15936;SDS011;9163;48.818;8.976;2023-02-01T08:03:34;9.90;;;4.10;;
15936;SDS011;9163;48.818;8.976;2023-02-01T08:06:02;9.67;;;3.30;;
15936;SDS011;9163;48.818;8.976;2023-02-01T08:08:31;8.43;;;3.97;;
15936;SDS011;9163;48.818;8.976;2023-02-01T08:10:58;11.20;;;4.27;;
15936;SDS011;9163;48.818;8.976;2023-02-01T08:13:26;10.53;;;4.03;;
15936;SDS011;9163;48.818;8.976;2023-02-01T08:15:57;25.07;;;12.97;;
15936;SDS011;9163;48.818;8.976;2023-02-01T08:18:24;10.10;;;3.87;;
15936;SDS011;9163;48.818;8.976;2023-02-01T08:20:51;7.77;;;3.40;;
15936;SDS011;9163;48.818;8.976;2023-02-01T08:23:19;9.70;;;3.33;;
15936;SDS011;9163;48.818;8.976;2023-02-01T08:25:48;13.13;;;3.57;;
15936;SDS011;9163;48.818;8.976;2023-02-01T08:28:15;12.93;;;3.80;;
15936;SDS011;9163;48.818;8.976;2023-02-01T08:30:42;9.20;;;3.17;;
15936;SDS011;9163;48.818;8.976;2023-02-01T08:33:09;7.63;;;2.90;;
15936;SDS011;9163;48.818;8.976;2023-02-01T08:35:37;9.67;;;3.30;;
15936;SDS011;9163;48.818;8.976;2023-02-01T08:38:05;8.40;;;2.80;;
15936;SDS011;9163;48.818;8.976;2023-02-01T08:40:32;11.30;;;4.03;;
15936;SDS011;9163;48.818;8.976;2023-02-01T08:43:01;16.93;;;3.60;;
15936;SDS011;9163;48.818;8.976;2023-02-01T08:45:28;7.40;;;3.10;;
15936;SDS011;9163;48.818;8.976;2023-02-01T08:47:55;6.77;;;2.97;;
15936;SDS011;9163;48.818;8.976;2023-02-01T08:50:23;9.27;;;3.30;;
15936;SDS011;9163;48.818;8.976;2023-02-01T08:52:51;8.17;;;3.00;;
15936;SDS011;9163;48.818;8.976;2023-02-01T08:55:19;6.80;;;2.80;;
15936;SDS011;9163;48.818;8.976;2023-02-01T08:57:47;11.87;;;3.63;;
15936;SDS011;9163;48.818;8.976;2023-02-01T09:00:16;8.33;;;3.27;;
15936;SDS011;9163;48.818;8.976;2023-02-01T09:02:44;11.90;;;3.43;;
15936;SDS011;9163;48.818;8.976;2023-02-01T09:05:11;9.70;;;3.00;;
15936;SDS011;9163;48.818;8.976;2023-02-01T09:07:39;10.80;;;2.93;;
15936;SDS011;9163;48.818;8.976;2023-02-01T09:10:07;9.87;;;3.37;;
15936;SDS011;9163;48.818;8.976;2023-02-01T09:12:35;7.33;;;3.10;;
15936;SDS011;9163;48.818;8.976;2023-02-01T09:15:03;13.43;;;3.87;;
15936;SDS011;9163;48.818;8.976;2023-02-01T09:17:33;11.53;;;3.30;;
15936;SDS011;9163;48.818;8.976;2023-02-01T09:20:01;8.43;;;3.00;;
15936;SDS011;9163;48.818;8.976;2023-02-01T09:22:29;9.07;;;2.80;;
15936;SDS011;9163;48.818;8.976;2023-02-01T09:24:56;12.83;;;3.00;;
15936;SDS011;9163;48.818;8.976;2023-02-01T09:27:23;12.47;;;3.27;;
15936;SDS011;9163;48.818;8.976;2023-02-01T09:29:50;9.77;;;2.83;;
15936;SDS011;9163;48.818;8.976;2023-02-01T09:32:18;8.37;;;2.57;;
15936;SDS011;9163;48.818;8.976;2023-02-01T09:34:47;9.97;;;3.07;;
15936;SDS011;9163;48.818;8.976;2023-02-01T09:37:15;10.00;;;2.80;;
15936;SDS011;9163;48.818;8.976;2023-02-01T09:39:42;12.60;;;2.67;;
15936;SDS011;9163;48.818;8.976;2023-02-01T09:42:14;10.50;;;2.83;;
15936;SDS011;9163;48.818;8.976;2023-02-01T09:47:46;22.23;;;3.93;;
15936;SDS011;9163;48.818;8.976;2023-02-01T09:50:18;9.50;;;2.90;;
15936;SDS011;9163;48.818;8.976;2023-02-01T09:52:50;11.87;;;2.83;;
15936;SDS011;9163;48.818;8.976;2023-02-01T09:55:24;14.83;;;3.10;;
15936;SDS011;9163;48.818;8.976;2023-02-01T09:57:58;14.23;;;2.80;;
15936;SDS011;9163;48.818;8.976;2023-02-01T10:00:29;15.10;;;3.10;;
15936;SDS011;9163;48.818;8.976;2023-02-01T10:03:00;8.63;;;2.50;;
15936;SDS011;9163;48.818;8.976;2023-02-01T10:05:34;12.33;;;3.00;;
15936;SDS011;9163;48.818;8.976;2023-02-01T10:08:16;11.67;;;2.77;;
15936;SDS011;9163;48.818;8.976;2023-02-01T10:10:52;13.70;;;3.30;;
15936;SDS011;9163;48.818;8.976;2023-02-01T10:13:33;15.63;;;2.93;;
15936;SDS011;9163;48.818;8.976;2023-02-01T10:16:13;11.00;;;3.23;;
15936;SDS011;9163;48.818;8.976;2023-02-01T10:18:50;9.83;;;2.23;;
15936;SDS011;9163;48.818;8.976;2023-02-01T10:21:31;15.23;;;3.00;;
15936;SDS011;9163;48.818;8.976;2023-02-01T10:24:28;12.50;;;2.60;;
15936;SDS011;9163;48.818;8.976;2023-02-01T10:27:13;12.13;;;2.50;;
15936;SDS011;9163;48.818;8.976;2023-02-01T10:29:43;10.53;;;2.67;;
15936;SDS011;9163;48.818;8.976;2023-02-01T10:32:13;11.23;;;2.60;;
15936;SDS011;9163;48.818;8.976;2023-02-01T10:34:42;9.30;;;2.43;;
15936;SDS011;9163;48.818;8.976;2023-02-01T10:37:20;11.97;;;2.50;;
15936;SDS011;9163;48.818;8.976;2023-02-01T10:39:53;12.53;;;2.30;;
15936;SDS011;9163;48.818;8.976;2023-02-01T10:42:23;8.03;;;2.40;;
15936;SDS011;9163;48.818;8.976;2023-02-01T10:44:52;10.10;;;2.23;;
15936;SDS011;9163;48.818;8.976;2023-02-01T10:47:23;9.70;;;2.60;;
15936;SDS011;9163;48.818;8.976;2023-02-01T10:49:52;8.70;;;2.23;;
15936;SDS011;9163;48.818;8.976;2023-02-01T10:52:28;9.33;;;2.70;;
15936;SDS011;9163;48.818;8.976;2023-02-01T10:57:59;12.80;;;3.10;;
15936;SDS011;9163;48.818;8.976;2023-02-01T11:00:27;9.57;;;2.40;;
15936;SDS011;9163;48.818;8.976;2023-02-01T11:03:00;10.00;;;2.67;;
15936;SDS011;9163;48.818;8.976;2023-02-01T11:05:46;9.70;;;2.70;;
15936;SDS011;9163;48.818;8.976;2023-02-01T11:08:15;11.73;;;2.53;;
15936;SDS011;9163;48.818;8.976;2023-02-01T11:10:45;9.57;;;2.33;;
15936;SDS011;9163;48.818;8.976;2023-02-01T11:13:13;9.90;;;2.30;;
15936;SDS011;9163;48.818;8.976;2023-02-01T11:15:43;10.70;;;2.57;;
15936;SDS011;9163;48.818;8.976;2023-02-01T11:18:16;10.90;;;2.23;;
15936;SDS011;9163;48.818;8.976;2023-02-01T11:20:45;9.13;;;2.53;;
15936;SDS011;9163;48.818;8.976;2023-02-01T11:23:19;11.30;;;2.40;;
15936;SDS011;9163;48.818;8.976;2023-02-01T11:25:48;9.93;;;2.03;;
15936;SDS011;9163;48.818;8.976;2023-02-01T11:28:17;11.60;;;2.40;;
15936;SDS011;9163;48.818;8.976;2023-02-01T11:30:46;9.80;;;2.47;;
15936;SDS011;9163;48.818;8.976;2023-02-01T11:33:15;5.87;;;2.53;;
15936;SDS011;9163;48.818;8.976;2023-02-01T11:35:44;12.33;;;2.47;;
15936;SDS011;9163;48.818;8.976;2023-02-01T11:38:20;11.33;;;3.77;;
15936;SDS011;9163;48.818;8.976;2023-02-01T11:40:49;10.90;;;2.67;;
15936;SDS011;9163;48.818;8.976;2023-02-01T11:43:17;8.37;;;2.23;;
15936;SDS011;9163;48.818;8.976;2023-02-01T11:45:53;10.10;;;2.53;;
15936;SDS011;9163;48.818;8.976;2023-02-01T11:48:23;11.43;;;2.47;;
15936;SDS011;9163;48.818;8.976;2023-02-01T11:50:55;8.30;;;2.00;;
15936;SDS011;9163;48.818;8.976;2023-02-01T11:54:00;11.20;;;2.80;;
15936;SDS011;9163;48.818;8.976;2023-02-01T11:56:47;9.50;;;2.60;;
15936;SDS011;9163;48.818;8.976;2023-02-01T12:02:32;12.33;;;2.53;;
15936;SDS011;9163;48.818;8.976;2023-02-01T12:05:18;6.83;;;1.87;;
15936;SDS011;9163;48.818;8.976;2023-02-01T12:07:57;14.60;;;3.10;;
15936;SDS011;9163;48.818;8.976;2023-02-01T12:10:48;13.30;;;2.53;;
15936;SDS011;9163;48.818;8.976;2023-02-01T12:13:27;7.87;;;2.57;;
15936;SDS011;9163;48.818;8.976;2023-02-01T12:16:07;7.80;;;2.27;;
15936;SDS011;9163;48.818;8.976;2023-02-01T12:18:52;9.33;;;1.83;;
15936;SDS011;9163;48.818;8.976;2023-02-01T12:24:33;12.80;;;2.83;;
15936;SDS011;9163;48.818;8.976;2023-02-01T12:27:27;11.73;;;2.43;;
15936;SDS011;9163;48.818;8.976;2023-02-01T12:30:16;8.33;;;2.60;;
15936;SDS011;9163;48.818;8.976;2023-02-01T12:33:02;11.90;;;5.70;;
15936;SDS011;9163;48.818;8.976;2023-02-01T12:35:41;8.90;;;2.63;;
15936;SDS011;9163;48.818;8.976;2023-02-01T12:38:22;9.27;;;3.47;;
15936;SDS011;9163;48.818;8.976;2023-02-01T12:41:05;9.93;;;2.70;;
15936;SDS011;9163;48.818;8.976;2023-02-01T12:43:42;13.03;;;2.00;;
15936;SDS011;9163;48.818;8.976;2023-02-01T12:46:17;8.53;;;3.00;;
15936;SDS011;9163;48.818;8.976;2023-02-01T12:48:50;9.67;;;2.60;;
15936;SDS011;9163;48.818;8.976;2023-02-01T12:51:25;9.40;;;2.50;;
15936;SDS011;9163;48.818;8.976;2023-02-01T12:53:55;8.83;;;2.50;;
15936;SDS011;9163;48.818;8.976;2023-02-01T12:56:41;13.60;;;3.17;;
15936;SDS011;9163;48.818;8.976;2023-02-01T12:59:16;10.27;;;2.23;;
15936;SDS011;9163;48.818;8.976;2023-02-01T13:01:48;10.57;;;2.37;;
15936;SDS011;9163;48.818;8.976;2023-02-01T13:04:25;14.83;;;2.97;;
15936;SDS011;9163;48.818;8.976;2023-02-01T13:06:59;9.60;;;2.57;;
15936;SDS011;9163;48.818;8.976;2023-02-01T13:09:32;13.77;;;2.60;;
15936;SDS011;9163;48.818;8.976;2023-02-01T13:12:06;8.77;;;2.13;;
15936;SDS011;9163;48.818;8.976;2023-02-01T13:14:42;10.13;;;2.80;;
15936;SDS011;9163;48.818;8.976;2023-02-01T13:17:14;8.87;;;2.43;;
15936;SDS011;9163;48.818;8.976;2023-02-01T13:19:48;12.47;;;2.80;;
15936;SDS011;9163;48.818;8.976;2023-02-01T13:22:19;10.03;;;2.23;;
15936;SDS011;9163;48.818;8.976;2023-02-01T13:24:51;8.50;;;2.13;;
15936;SDS011;9163;48.818;8.976;2023-02-01T13:27:21;10.70;;;2.37;;
15936;SDS011;9163;48.818;8.976;2023-02-01T13:29:58;11.83;;;3.23;;
15936;SDS011;9163;48.818;8.976;2023-02-01T13:32:31;14.00;;;2.27;;
15936;SDS011;9163;48.818;8.976;2023-02-01T13:38:28;10.17;;;2.50;;
15936;SDS011;9163;48.818;8.976;2023-02-01T13:41:24;10.50;;;2.80;;
15936;SDS011;9163;48.818;8.976;2023-02-01T13:43:54;11.63;;;2.50;;
15936;SDS011;9163;48.818;8.976;2023-02-01T13:46:26;9.83;;;2.40;;
15936;SDS011;9163;48.818;8.976;2023-02-01T13:48:54;14.43;;;3.20;;
15936;SDS011;9163;48.818;8.976;2023-02-01T13:51:33;11.20;;;3.30;;
15936;SDS011;9163;48.818;8.976;2023-02-01T13:54:03;13.53;;;3.17;;
15936;SDS011;9163;48.818;8.976;2023-02-01T13:56:39;15.03;;;3.37;;
15936;SDS011;9163;48.818;8.976;2023-02-01T14:05:59;9.90;;;3.20;;
15936;SDS011;9163;48.818;8.976;2023-02-01T14:08:22;12.87;;;3.50;;
15936;SDS011;9163;48.818;8.976;2023-02-01T14:10:51;15.87;;;3.67;;
15936;SDS011;9163;48.818;8.976;2023-02-01T14:13:26;14.00;;;2.73;;
15936;SDS011;9163;48.818;8.976;2023-02-01T14:21:27;7.73;;;2.50;;
15936;SDS011;9163;48.818;8.976;2023-02-01T14:23:57;12.83;;;2.80;;
15936;SDS011;9163;48.818;8.976;2023-02-01T14:26:27;10.57;;;2.47;;
15936;SDS011;9163;48.818;8.976;2023-02-01T14:29:22;13.80;;;2.70;;
15936;SDS011;9163;48.818;8.976;2023-02-01T14:32:00;8.13;;;2.40;;
15936;SDS011;9163;48.818;8.976;2023-02-01T14:34:35;9.67;;;2.40;;
15936;SDS011;9163;48.818;8.976;2023-02-01T14:37:09;10.53;;;2.50;;
15936;SDS011;9163;48.818;8.976;2023-02-01T14:39:47;11.50;;;2.87;;
15936;SDS011;9163;48.818;8.976;2023-02-01T14:42:26;13.80;;;2.73;;
15936;SDS011;9163;48.818;8.976;2023-02-01T14:45:45;11.47;;;2.57;;
15936;SDS011;9163;48.818;8.976;2023-02-01T14:51:10;11.53;;;3.33;;
15936;SDS011;9163;48.818;8.976;2023-02-01T14:53:40;13.27;;;2.60;;
15936;SDS011;9163;48.818;8.976;2023-02-01T14:56:11;14.60;;;3.23;;
15936;SDS011;9163;48.818;8.976;2023-02-01T14:58:42;13.90;;;3.10;;
15936;SDS011;9163;48.818;8.976;2023-02-01T15:01:16;12.30;;;3.73;;
15936;SDS011;9163;48.818;8.976;2023-02-01T15:03:48;16.90;;;4.03;;
15936;SDS011;9163;48.818;8.976;2023-02-01T15:06:25;16.73;;;6.40;;
15936;SDS011;9163;48.818;8.976;2023-02-01T15:08:56;12.87;;;3.00;;
15936;SDS011;9163;48.818;8.976;2023-02-01T15:11:26;10.03;;;2.50;;
15936;SDS011;9163;48.818;8.976;2023-02-01T15:13:54;9.90;;;2.17;;
15936;SDS011;9163;48.818;8.976;2023-02-01T15:16:23;11.53;;;2.50;;
15936;SDS011;9163;48.818;8.976;2023-02-01T15:19:06;9.60;;;2.63;;
15936;SDS011;9163;48.818;8.976;2023-02-01T15:21:43;12.43;;;2.87;;
15936;SDS011;9163;48.818;8.976;2023-02-01T15:24:12;10.40;;;2.77;;
15936;SDS011;9163;48.818;8.976;2023-02-01T15:26:40;9.30;;;2.70;;
15936;SDS011;9163;48.818;8.976;2023-02-01T15:29:11;6.90;;;2.23;;
15936;SDS011;9163;48.818;8.976;2023-02-01T15:31:40;7.83;;;2.63;;
15936;SDS011;9163;48.818;8.976;2023-02-01T15:34:10;9.97;;;2.20;;
15936;SDS011;9163;48.818;8.976;2023-02-01T15:36:37;8.83;;;2.30;;
15936;SDS011;9163;48.818;8.976;2023-02-01T15:39:17;8.40;;;2.20;;
15936;SDS011;9163;48.818;8.976;2023-02-01T15:41:51;8.50;;;2.17;;
15936;SDS011;9163;48.818;8.976;2023-02-01T15:44:31;10.73;;;2.10;;
15936;SDS011;9163;48.818;8.976;2023-02-01T15:47:04;8.90;;;1.83;;
15936;SDS011;9163;48.818;8.976;2023-02-01T15:49:36;10.63;;;2.37;;
15936;SDS011;9163;48.818;8.976;2023-02-01T15:52:11;8.13;;;2.30;;
15936;SDS011;9163;48.818;8.976;2023-02-01T15:54:49;11.13;;;2.20;;
15936;SDS011;9163;48.818;8.976;2023-02-01T15:57:20;10.50;;;2.10;;